sensor_id;sensor_type;location;lat;lon;timestamp;P1;durP1;ratioP1;P2;durP2;ratioP2
12228;SDS011;6177;52.402;9.800;2023-04-01T00:00:21;2.40;;;1.50;;
12228;SDS011;6177;52.402;9.800;2023-04-01T00:03:12;1.00;;;1.00;;
12228;SDS011;6177;52.402;9.800;2023-04-01T00:06:03;3.40;;;0.90;;
12228;SDS011;6177;52.402;9.800;2023-04-01T00:08:54;1.77;;;0.90;;
12228;SDS011;6177;52.402;9.800;2023-04-01T00:11:45;2.30;;;1.27;;
12228;SDS011;6177;52.402;9.800;2023-04-01T00:14:36;2.27;;;1.17;;
12228;SDS011;6177;52.402;9.800;2023-04-01T00:17:27;2.10;;;1.03;;
12228;SDS011;6177;52.402;9.800;2023-04-01T00:20:18;2.47;;;1.17;;
12228;SDS011;6177;52.402;9.800;2023-04-01T00:23:09;1.90;;;0.90;;
12228;SDS011;6177;52.402;9.800;2023-04-01T00:26:01;2.87;;;1.37;;
12228;SDS011;6177;52.402;9.800;2023-04-01T00:28:52;1.33;;;1.07;;
12228;SDS011;6177;52.402;9.800;2023-04-01T00:31:43;1.20;;;1.07;;
12228;SDS011;6177;52.402;9.800;2023-04-01T00:34:34;3.07;;;1.17;;
12228;SDS011;6177;52.402;9.800;2023-04-01T00:37:25;2.03;;;1.10;;
12228;SDS011;6177;52.402;9.800;2023-04-01T00:40:25;2.77;;;0.90;;
12228;SDS011;6177;52.402;9.800;2023-04-01T00:43:20;2.90;;;1.20;;
12228;SDS011;6177;52.402;9.800;2023-04-01T00:46:11;3.10;;;1.13;;
12228;SDS011;6177;52.402;9.800;2023-04-01T00:49:02;1.93;;;0.90;;
12228;SDS011;6177;52.402;9.800;2023-04-01T00:51:54;2.57;;;1.03;;
12228;SDS011;6177;52.402;9.800;2023-04-01T00:54:47;1.47;;;0.90;;
12228;SDS011;6177;52.402;9.800;2023-04-01T00:57:39;2.43;;;0.80;;
12228;SDS011;6177;52.402;9.800;2023-04-01T01:00:31;2.60;;;0.90;;
12228;SDS011;6177;52.402;9.800;2023-04-01T01:03:22;2.00;;;0.70;;
12228;SDS011;6177;52.402;9.800;2023-04-01T01:12:15;1.73;;;0.90;;
12228;SDS011;6177;52.402;9.800;2023-04-01T01:15:25;1.00;;;0.80;;
12228;SDS011;6177;52.402;9.800;2023-04-01T01:21:28;2.30;;;0.70;;
12228;SDS011;6177;52.402;9.800;2023-04-01T01:27:41;0.93;;;0.60;;
12228;SDS011;6177;52.402;9.800;2023-04-01T01:37:04;0.70;;;0.60;;
12228;SDS011;6177;52.402;9.800;2023-04-01T01:39:58;0.80;;;0.40;;
12228;SDS011;6177;52.402;9.800;2023-04-01T01:42:54;0.97;;;0.60;;
12228;SDS011;6177;52.402;9.800;2023-04-01T01:45:49;2.43;;;0.73;;
12228;SDS011;6177;52.402;9.800;2023-04-01T01:48:43;1.13;;;0.70;;
12228;SDS011;6177;52.402;9.800;2023-04-01T01:51:35;1.33;;;0.50;;
12228;SDS011;6177;52.402;9.800;2023-04-01T01:54:27;2.13;;;0.77;;
12228;SDS011;6177;52.402;9.800;2023-04-01T01:57:20;0.43;;;0.43;;
12228;SDS011;6177;52.402;9.800;2023-04-01T02:00:16;0.50;;;0.47;;
12228;SDS011;6177;52.402;9.800;2023-04-01T02:03:08;0.67;;;0.50;;
12228;SDS011;6177;52.402;9.800;2023-04-01T02:06:01;1.27;;;0.50;;
12228;SDS011;6177;52.402;9.800;2023-04-01T02:08:55;0.40;;;0.40;;
12228;SDS011;6177;52.402;9.800;2023-04-01T02:12:01;2.33;;;0.50;;
12228;SDS011;6177;52.402;9.800;2023-04-01T02:15:01;1.63;;;0.50;;
12228;SDS011;6177;52.402;9.800;2023-04-01T02:18:00;0.90;;;0.50;;
12228;SDS011;6177;52.402;9.800;2023-04-01T02:20:51;0.53;;;0.53;;
12228;SDS011;6177;52.402;9.800;2023-04-01T02:23:42;1.40;;;0.63;;
12228;SDS011;6177;52.402;9.800;2023-04-01T02:26:33;1.50;;;0.90;;
12228;SDS011;6177;52.402;9.800;2023-04-01T02:29:24;3.17;;;0.60;;
12228;SDS011;6177;52.402;9.800;2023-04-01T02:32:15;1.33;;;0.70;;
12228;SDS011;6177;52.402;9.800;2023-04-01T02:35:11;1.23;;;0.60;;
12228;SDS011;6177;52.402;9.800;2023-04-01T02:38:03;1.63;;;0.50;;
12228;SDS011;6177;52.402;9.800;2023-04-01T02:40:56;0.30;;;0.30;;
12228;SDS011;6177;52.402;9.800;2023-04-01T02:43:49;0.93;;;0.50;;
12228;SDS011;6177;52.402;9.800;2023-04-01T02:46:40;3.13;;;0.80;;
12228;SDS011;6177;52.402;9.800;2023-04-01T02:49:31;1.13;;;0.50;;
12228;SDS011;6177;52.402;9.800;2023-04-01T02:52:22;0.40;;;0.40;;
12228;SDS011;6177;52.402;9.800;2023-04-01T02:55:13;1.80;;;0.40;;
12228;SDS011;6177;52.402;9.800;2023-04-01T02:58:04;3.77;;;0.60;;
12228;SDS011;6177;52.402;9.800;2023-04-01T03:00:56;0.93;;;0.50;;
12228;SDS011;6177;52.402;9.800;2023-04-01T03:03:47;0.50;;;0.47;;
12228;SDS011;6177;52.402;9.800;2023-04-01T03:06:38;0.67;;;0.60;;
12228;SDS011;6177;52.402;9.800;2023-04-01T03:09:29;1.03;;;0.53;;
12228;SDS011;6177;52.402;9.800;2023-04-01T03:12:20;1.60;;;0.37;;
12228;SDS011;6177;52.402;9.800;2023-04-01T03:15:14;2.20;;;0.63;;
12228;SDS011;6177;52.402;9.800;2023-04-01T03:18:04;0.57;;;0.50;;
12228;SDS011;6177;52.402;9.800;2023-04-01T03:20:55;0.67;;;0.60;;
12228;SDS011;6177;52.402;9.800;2023-04-01T03:23:46;0.40;;;0.40;;
12228;SDS011;6177;52.402;9.800;2023-04-01T03:26:37;1.23;;;0.30;;
12228;SDS011;6177;52.402;9.800;2023-04-01T03:29:28;1.83;;;0.43;;
12228;SDS011;6177;52.402;9.800;2023-04-01T03:32:19;0.60;;;0.60;;
12228;SDS011;6177;52.402;9.800;2023-04-01T03:35:10;1.33;;;0.50;;
12228;SDS011;6177;52.402;9.800;2023-04-01T03:38:01;0.70;;;0.53;;
12228;SDS011;6177;52.402;9.800;2023-04-01T03:40:52;0.70;;;0.67;;
12228;SDS011;6177;52.402;9.800;2023-04-01T03:43:44;0.77;;;0.50;;
12228;SDS011;6177;52.402;9.800;2023-04-01T03:46:35;1.23;;;0.50;;
12228;SDS011;6177;52.402;9.800;2023-04-01T03:49:25;0.90;;;0.60;;
12228;SDS011;6177;52.402;9.800;2023-04-01T03:52:16;2.00;;;0.70;;
12228;SDS011;6177;52.402;9.800;2023-04-01T03:55:07;0.70;;;0.70;;
12228;SDS011;6177;52.402;9.800;2023-04-01T03:57:59;0.70;;;0.70;;
12228;SDS011;6177;52.402;9.800;2023-04-01T04:00:49;0.73;;;0.73;;
12228;SDS011;6177;52.402;9.800;2023-04-01T04:03:40;0.40;;;0.40;;
12228;SDS011;6177;52.402;9.800;2023-04-01T04:06:32;3.80;;;0.70;;
12228;SDS011;6177;52.402;9.800;2023-04-01T04:09:22;0.60;;;0.60;;
12228;SDS011;6177;52.402;9.800;2023-04-01T04:12:13;1.13;;;0.40;;
12228;SDS011;6177;52.402;9.800;2023-04-01T04:15:04;0.90;;;0.70;;
12228;SDS011;6177;52.402;9.800;2023-04-01T04:17:55;1.57;;;0.50;;
12228;SDS011;6177;52.402;9.800;2023-04-01T04:20:46;1.30;;;0.60;;
12228;SDS011;6177;52.402;9.800;2023-04-01T04:23:42;1.47;;;0.60;;
12228;SDS011;6177;52.402;9.800;2023-04-01T04:26:33;0.80;;;0.50;;
12228;SDS011;6177;52.402;9.800;2023-04-01T04:29:24;1.27;;;0.97;;
12228;SDS011;6177;52.402;9.800;2023-04-01T04:32:15;1.60;;;0.80;;
12228;SDS011;6177;52.402;9.800;2023-04-01T04:35:05;1.00;;;0.83;;
12228;SDS011;6177;52.402;9.800;2023-04-01T04:37:57;2.50;;;0.90;;
12228;SDS011;6177;52.402;9.800;2023-04-01T04:40:48;0.63;;;0.50;;
12228;SDS011;6177;52.402;9.800;2023-04-01T04:43:39;1.53;;;0.50;;
12228;SDS011;6177;52.402;9.800;2023-04-01T04:46:31;0.73;;;0.57;;
12228;SDS011;6177;52.402;9.800;2023-04-01T04:49:32;1.57;;;0.70;;
12228;SDS011;6177;52.402;9.800;2023-04-01T04:52:28;1.40;;;0.70;;
12228;SDS011;6177;52.402;9.800;2023-04-01T04:55:18;1.33;;;0.70;;
12228;SDS011;6177;52.402;9.800;2023-04-01T04:58:13;1.30;;;0.63;;
12228;SDS011;6177;52.402;9.800;2023-04-01T05:01:10;1.27;;;0.90;;
12228;SDS011;6177;52.402;9.800;2023-04-01T05:04:04;0.87;;;0.70;;
12228;SDS011;6177;52.402;9.800;2023-04-01T05:06:55;1.27;;;0.47;;
12228;SDS011;6177;52.402;9.800;2023-04-01T05:09:47;1.23;;;0.70;;
12228;SDS011;6177;52.402;9.800;2023-04-01T05:12:38;0.53;;;0.53;;
12228;SDS011;6177;52.402;9.800;2023-04-01T05:15:31;1.03;;;0.50;;
12228;SDS011;6177;52.402;9.800;2023-04-01T05:18:22;1.70;;;0.60;;
12228;SDS011;6177;52.402;9.800;2023-04-01T05:21:14;2.80;;;0.73;;
12228;SDS011;6177;52.402;9.800;2023-04-01T05:24:09;1.60;;;0.50;;
12228;SDS011;6177;52.402;9.800;2023-04-01T05:27:00;0.70;;;0.53;;
12228;SDS011;6177;52.402;9.800;2023-04-01T05:29:52;0.70;;;0.50;;
12228;SDS011;6177;52.402;9.800;2023-04-01T05:33:04;0.73;;;0.50;;
12228;SDS011;6177;52.402;9.800;2023-04-01T05:35:56;1.73;;;0.40;;
12228;SDS011;6177;52.402;9.800;2023-04-01T05:38:47;1.45;;;0.70;;
12228;SDS011;6177;52.402;9.800;2023-04-01T05:41:37;1.03;;;0.50;;
12228;SDS011;6177;52.402;9.800;2023-04-01T05:44:28;0.50;;;0.50;;
12228;SDS011;6177;52.402;9.800;2023-04-01T05:47:30;1.03;;;0.37;;
12228;SDS011;6177;52.402;9.800;2023-04-01T05:50:21;0.50;;;0.50;;
12228;SDS011;6177;52.402;9.800;2023-04-01T05:53:12;1.30;;;0.40;;
12228;SDS011;6177;52.402;9.800;2023-04-01T05:56:06;1.43;;;0.80;;
12228;SDS011;6177;52.402;9.800;2023-04-01T05:59:02;0.57;;;0.40;;
12228;SDS011;6177;52.402;9.800;2023-04-01T06:01:54;1.13;;;0.40;;
12228;SDS011;6177;52.402;9.800;2023-04-01T06:04:44;0.53;;;0.40;;
12228;SDS011;6177;52.402;9.800;2023-04-01T06:07:35;0.40;;;0.40;;
12228;SDS011;6177;52.402;9.800;2023-04-01T06:10:36;1.27;;;0.60;;
12228;SDS011;6177;52.402;9.800;2023-04-01T06:20:24;1.17;;;0.87;;
12228;SDS011;6177;52.402;9.800;2023-04-01T06:50:07;0.50;;;0.50;;
12228;SDS011;6177;52.402;9.800;2023-04-01T06:56:46;1.00;;;0.80;;
12228;SDS011;6177;52.402;9.800;2023-04-01T06:59:47;1.57;;;0.80;;
12228;SDS011;6177;52.402;9.800;2023-04-01T07:02:39;1.47;;;0.73;;
12228;SDS011;6177;52.402;9.800;2023-04-01T07:05:32;1.03;;;0.80;;
12228;SDS011;6177;52.402;9.800;2023-04-01T07:08:24;0.60;;;0.60;;
12228;SDS011;6177;52.402;9.800;2023-04-01T07:11:24;1.87;;;0.80;;
12228;SDS011;6177;52.402;9.800;2023-04-01T07:14:36;0.70;;;0.70;;
12228;SDS011;6177;52.402;9.800;2023-04-01T07:17:28;0.70;;;0.70;;
12228;SDS011;6177;52.402;9.800;2023-04-01T07:20:23;0.90;;;0.90;;
12228;SDS011;6177;52.402;9.800;2023-04-01T07:23:21;1.37;;;0.70;;
12228;SDS011;6177;52.402;9.800;2023-04-01T07:26:22;2.10;;;0.50;;
12228;SDS011;6177;52.402;9.800;2023-04-01T07:29:16;0.53;;;0.50;;
12228;SDS011;6177;52.402;9.800;2023-04-01T07:35:46;1.13;;;0.47;;
12228;SDS011;6177;52.402;9.800;2023-04-01T07:42:08;0.50;;;0.50;;
12228;SDS011;6177;52.402;9.800;2023-04-01T07:45:05;1.47;;;0.70;;
12228;SDS011;6177;52.402;9.800;2023-04-01T08:07:07;1.37;;;0.90;;
12228;SDS011;6177;52.402;9.800;2023-04-01T08:13:44;0.57;;;0.30;;
12228;SDS011;6177;52.402;9.800;2023-04-01T08:17:24;0.93;;;0.50;;
12228;SDS011;6177;52.402;9.800;2023-04-01T08:23:57;1.77;;;0.60;;
12228;SDS011;6177;52.402;9.800;2023-04-01T08:26:49;0.90;;;0.47;;
12228;SDS011;6177;52.402;9.800;2023-04-01T08:32:52;0.30;;;0.30;;
12228;SDS011;6177;52.402;9.800;2023-04-01T08:35:54;0.50;;;0.47;;
12228;SDS011;6177;52.402;9.800;2023-04-01T08:38:59;0.40;;;0.30;;
12228;SDS011;6177;52.402;9.800;2023-04-01T08:45:15;0.57;;;0.30;;
12228;SDS011;6177;52.402;9.800;2023-04-01T08:51:51;0.30;;;0.30;;
12228;SDS011;6177;52.402;9.800;2023-04-01T09:05:24;0.68;;;0.68;;
12228;SDS011;6177;52.402;9.800;2023-04-01T09:15:16;0.25;;;0.25;;
12228;SDS011;6177;52.402;9.800;2023-04-01T09:51:03;0.30;;;0.30;;
12228;SDS011;6177;52.402;9.800;2023-04-01T09:57:39;0.40;;;0.40;;
12228;SDS011;6177;52.402;9.800;2023-04-01T10:04:40;0.40;;;0.40;;
12228;SDS011;6177;52.402;9.800;2023-04-01T10:14:27;0.10;;;0.10;;
12228;SDS011;6177;52.402;9.800;2023-04-01T10:27:01;0.20;;;0.20;;
12228;SDS011;6177;52.402;9.800;2023-04-01T10:37:02;0.20;;;0.20;;
12228;SDS011;6177;52.402;9.800;2023-04-01T10:58:18;0.20;;;0.20;;
12228;SDS011;6177;52.402;9.800;2023-04-01T11:44:58;0.20;;;0.20;;
12228;SDS011;6177;52.402;9.800;2023-04-01T11:57:35;0.50;;;0.50;;
12228;SDS011;6177;52.402;9.800;2023-04-01T12:13:32;0.40;;;0.40;;
12228;SDS011;6177;52.402;9.800;2023-04-01T12:19:46;0.90;;;0.40;;
12228;SDS011;6177;52.402;9.800;2023-04-01T12:22:46;0.52;;;0.52;;
12228;SDS011;6177;52.402;9.800;2023-04-01T12:29:02;0.55;;;0.55;;
12228;SDS011;6177;52.402;9.800;2023-04-01T12:45:23;0.68;;;0.68;;
12228;SDS011;6177;52.402;9.800;2023-04-01T12:52:05;1.00;;;1.00;;
12228;SDS011;6177;52.402;9.800;2023-04-01T13:01:51;0.25;;;0.25;;
12228;SDS011;6177;52.402;9.800;2023-04-01T13:05:01;0.45;;;0.43;;
12228;SDS011;6177;52.402;9.800;2023-04-01T13:11:34;0.38;;;0.38;;
12228;SDS011;6177;52.402;9.800;2023-04-01T13:17:49;0.30;;;0.30;;
12228;SDS011;6177;52.402;9.800;2023-04-01T13:20:45;0.73;;;0.40;;
12228;SDS011;6177;52.402;9.800;2023-04-01T13:24:45;0.52;;;0.52;;
12228;SDS011;6177;52.402;9.800;2023-04-01T13:27:14;0.30;;;0.30;;
12228;SDS011;6177;52.402;9.800;2023-04-01T13:30:24;0.25;;;0.25;;
12228;SDS011;6177;52.402;9.800;2023-04-01T13:36:36;0.40;;;0.40;;
12228;SDS011;6177;52.402;9.800;2023-04-01T13:42:36;0.50;;;0.50;;
12228;SDS011;6177;52.402;9.800;2023-04-01T13:48:58;0.60;;;0.60;;
12228;SDS011;6177;52.402;9.800;2023-04-01T14:07:47;1.43;;;0.20;;
12228;SDS011;6177;52.402;9.800;2023-04-01T14:23:40;0.53;;;0.53;;
12228;SDS011;6177;52.402;9.800;2023-04-01T14:41:47;0.30;;;0.30;;
12228;SDS011;6177;52.402;9.800;2023-04-01T14:45:02;0.40;;;0.40;;
12228;SDS011;6177;52.402;9.800;2023-04-01T14:47:58;0.40;;;0.40;;
12228;SDS011;6177;52.402;9.800;2023-04-01T14:50:51;0.30;;;0.30;;
12228;SDS011;6177;52.402;9.800;2023-04-01T14:53:51;0.47;;;0.20;;
12228;SDS011;6177;52.402;9.800;2023-04-01T14:56:50;0.30;;;0.30;;
12228;SDS011;6177;52.402;9.800;2023-04-01T15:00:25;0.30;;;0.30;;
12228;SDS011;6177;52.402;9.800;2023-04-01T15:03:07;0.30;;;0.30;;
12228;SDS011;6177;52.402;9.800;2023-04-01T15:12:32;0.20;;;0.20;;
12228;SDS011;6177;52.402;9.800;2023-04-01T15:15:48;0.40;;;0.40;;
12228;SDS011;6177;52.402;9.800;2023-04-01T15:24:40;0.40;;;0.40;;
12228;SDS011;6177;52.402;9.800;2023-04-01T15:37:02;0.47;;;0.47;;
12228;SDS011;6177;52.402;9.800;2023-04-01T15:43:32;0.30;;;0.30;;
12228;SDS011;6177;52.402;9.800;2023-04-01T15:46:36;0.30;;;0.30;;
12228;SDS011;6177;52.402;9.800;2023-04-01T15:59:01;0.40;;;0.40;;
12228;SDS011;6177;52.402;9.800;2023-04-01T16:02:08;0.47;;;0.47;;
12228;SDS011;6177;52.402;9.800;2023-04-01T16:20:14;0.73;;;0.30;;
12228;SDS011;6177;52.402;9.800;2023-04-01T16:23:16;0.40;;;0.40;;
12228;SDS011;6177;52.402;9.800;2023-04-01T16:26:19;0.40;;;0.40;;
12228;SDS011;6177;52.402;9.800;2023-04-01T16:29:19;1.03;;;0.40;;
12228;SDS011;6177;52.402;9.800;2023-04-01T16:38:46;0.70;;;0.70;;
12228;SDS011;6177;52.402;9.800;2023-04-01T16:51:13;0.53;;;0.53;;
12228;SDS011;6177;52.402;9.800;2023-04-01T16:54:10;0.60;;;0.60;;
12228;SDS011;6177;52.402;9.800;2023-04-01T17:03:28;0.90;;;0.90;;
12228;SDS011;6177;52.402;9.800;2023-04-01T17:28:13;0.60;;;0.60;;
12228;SDS011;6177;52.402;9.800;2023-04-01T17:38:21;0.77;;;0.77;;
12228;SDS011;6177;52.402;9.800;2023-04-01T17:51:05;0.60;;;0.60;;
12228;SDS011;6177;52.402;9.800;2023-04-01T17:57:45;0.50;;;0.50;;
12228;SDS011;6177;52.402;9.800;2023-04-01T18:00:51;0.60;;;0.60;;
12228;SDS011;6177;52.402;9.800;2023-04-01T18:22:54;0.80;;;0.70;;
12228;SDS011;6177;52.402;9.800;2023-04-01T18:25:49;0.70;;;0.70;;
12228;SDS011;6177;52.402;9.800;2023-04-01T18:28:56;0.70;;;0.70;;
12228;SDS011;6177;52.402;9.800;2023-04-01T18:32:08;0.50;;;0.50;;
12228;SDS011;6177;52.402;9.800;2023-04-01T18:41:14;0.90;;;0.90;;
12228;SDS011;6177;52.402;9.800;2023-04-01T18:50:22;0.87;;;0.87;;
12228;SDS011;6177;52.402;9.800;2023-04-01T18:53:20;0.67;;;0.67;;
12228;SDS011;6177;52.402;9.800;2023-04-01T18:59:28;1.00;;;1.00;;
12228;SDS011;6177;52.402;9.800;2023-04-01T19:05:34;1.03;;;1.03;;
12228;SDS011;6177;52.402;9.800;2023-04-01T19:08:28;1.00;;;1.00;;
12228;SDS011;6177;52.402;9.800;2023-04-01T19:20:31;0.90;;;0.90;;
12228;SDS011;6177;52.402;9.800;2023-04-01T19:33:06;1.27;;;1.27;;
12228;SDS011;6177;52.402;9.800;2023-04-01T19:45:51;1.40;;;1.40;;
12228;SDS011;6177;52.402;9.800;2023-04-01T19:48:56;1.97;;;1.87;;
12228;SDS011;6177;52.402;9.800;2023-04-01T19:54:51;1.47;;;1.47;;
12228;SDS011;6177;52.402;9.800;2023-04-01T20:01:44;1.27;;;1.27;;
12228;SDS011;6177;52.402;9.800;2023-04-01T20:07:34;1.50;;;1.40;;
12228;SDS011;6177;52.402;9.800;2023-04-01T20:10:31;1.60;;;1.60;;
12228;SDS011;6177;52.402;9.800;2023-04-01T20:19:42;1.57;;;1.57;;
12228;SDS011;6177;52.402;9.800;2023-04-01T20:32:11;2.53;;;2.43;;
12228;SDS011;6177;52.402;9.800;2023-04-01T20:42:52;3.00;;;2.60;;
12228;SDS011;6177;52.402;9.800;2023-04-01T20:51:32;2.87;;;2.67;;
12228;SDS011;6177;52.402;9.800;2023-04-01T21:00:58;2.60;;;2.50;;
12228;SDS011;6177;52.402;9.800;2023-04-01T21:04:07;3.17;;;2.97;;
12228;SDS011;6177;52.402;9.800;2023-04-01T21:10:34;2.73;;;2.53;;
12228;SDS011;6177;52.402;9.800;2023-04-01T21:13:34;3.10;;;2.97;;
12228;SDS011;6177;52.402;9.800;2023-04-01T21:16:38;3.40;;;3.10;;
12228;SDS011;6177;52.402;9.800;2023-04-01T21:32:27;3.00;;;2.90;;
12228;SDS011;6177;52.402;9.800;2023-04-01T21:35:30;3.77;;;3.43;;
12228;SDS011;6177;52.402;9.800;2023-04-01T21:39:04;4.03;;;3.63;;
12228;SDS011;6177;52.402;9.800;2023-04-01T22:01:23;3.80;;;3.50;;
12228;SDS011;6177;52.402;9.800;2023-04-01T22:04:55;3.00;;;2.90;;
12228;SDS011;6177;52.402;9.800;2023-04-01T22:14:33;3.63;;;3.20;;
12228;SDS011;6177;52.402;9.800;2023-04-01T22:24:24;3.97;;;3.67;;
12228;SDS011;6177;52.402;9.800;2023-04-01T22:36:47;3.40;;;3.10;;
12228;SDS011;6177;52.402;9.800;2023-04-01T22:43:16;3.70;;;3.40;;
12228;SDS011;6177;52.402;9.800;2023-04-01T22:49:37;3.97;;;3.63;;
12228;SDS011;6177;52.402;9.800;2023-04-01T22:52:43;4.93;;;4.53;;
12228;SDS011;6177;52.402;9.800;2023-04-01T22:55:36;4.63;;;3.97;;
12228;SDS011;6177;52.402;9.800;2023-04-01T22:58:38;4.53;;;4.10;;
12228;SDS011;6177;52.402;9.800;2023-04-01T23:01:34;4.17;;;3.87;;
12228;SDS011;6177;52.402;9.800;2023-04-01T23:04:33;4.50;;;4.20;;
12228;SDS011;6177;52.402;9.800;2023-04-01T23:10:59;4.87;;;4.30;;
12228;SDS011;6177;52.402;9.800;2023-04-01T23:14:03;4.80;;;4.27;;
12228;SDS011;6177;52.402;9.800;2023-04-01T23:26:59;4.70;;;4.13;;
12228;SDS011;6177;52.402;9.800;2023-04-01T23:29:53;5.20;;;4.60;;
12228;SDS011;6177;52.402;9.800;2023-04-01T23:32:44;4.27;;;3.97;;
12228;SDS011;6177;52.402;9.800;2023-04-01T23:35:43;3.90;;;3.60;;
12228;SDS011;6177;52.402;9.800;2023-04-01T23:38:46;4.63;;;3.43;;
12228;SDS011;6177;52.402;9.800;2023-04-01T23:41:39;3.73;;;3.30;;
12228;SDS011;6177;52.402;9.800;2023-04-01T23:44:30;4.83;;;3.50;;
12228;SDS011;6177;52.402;9.800;2023-04-01T23:47:26;5.07;;;3.57;;
12228;SDS011;6177;52.402;9.800;2023-04-01T23:50:23;3.50;;;3.20;;
12228;SDS011;6177;52.402;9.800;2023-04-01T23:53:23;6.40;;;3.50;;
12228;SDS011;6177;52.402;9.800;2023-04-01T23:56:16;3.97;;;3.67;;
12228;SDS011;6177;52.402;9.800;2023-04-01T23:59:11;3.70;;;3.27;;
